createdAt,value
2018-09-13T00:00:47.583Z,102541.44
2018-09-13T00:03:16.737Z,102537.88
2018-09-13T00:05:46.426Z,102538.25
2018-09-13T00:08:15.540Z,102538.77
2018-09-13T00:10:44.533Z,102529.34
2018-09-13T00:13:13.607Z,102536.84
2018-09-13T00:15:42.598Z,102528.08
2018-09-13T00:18:11.722Z,102528.98
2018-09-13T00:20:40.723Z,102526.41
2018-09-13T00:23:10.175Z,102518.81
2018-09-13T00:25:39.171Z,102519.06
2018-09-13T00:28:08.107Z,102516.72
2018-09-13T00:30:37.113Z,102519.06
2018-09-13T00:33:06.096Z,102512.50
2018-09-13T00:35:35.152Z,102515.45
2018-09-13T00:38:05.191Z,102516.11
2018-09-13T00:40:34.151Z,102515.88
2018-09-13T00:43:03.202Z,102520.42
2018-09-13T00:45:32.287Z,102521.03
2018-09-13T00:48:01.266Z,102517.56
2018-09-13T00:50:30.435Z,102519.77
2018-09-13T00:52:59.514Z,102518.92
2018-09-13T00:55:28.713Z,102526.55
2018-09-13T00:57:57.731Z,102525.11
2018-09-13T01:00:26.739Z,102525.95
2018-09-13T01:02:55.871Z,102526.76
2018-09-13T01:05:24.874Z,102521.03
2018-09-13T01:07:53.896Z,102514.16
2018-09-13T01:10:23.071Z,102514.76
2018-09-13T01:12:52.288Z,102505.01
2018-09-13T01:15:21.264Z,102510.06
2018-09-13T01:17:50.359Z,102511.89
2018-09-13T01:20:19.385Z,102515.50
2018-09-13T01:22:48.379Z,102508.19
2018-09-13T01:25:17.334Z,102513.34
2018-09-13T01:27:46.342Z,102511.98
2018-09-13T01:30:15.440Z,102506.84
2018-09-13T01:32:44.410Z,102506.84
2018-09-13T01:35:13.405Z,102501.92
2018-09-13T01:37:42.405Z,102498.69
2018-09-13T01:40:11.387Z,102507.06
2018-09-13T01:42:40.407Z,102501.86
2018-09-13T01:45:09.572Z,102504.73
2018-09-13T01:47:38.629Z,102501.31
2018-09-13T01:50:07.812Z,102503.65
2018-09-13T01:52:36.820Z,102505.99
2018-09-13T01:55:05.883Z,102503.83
2018-09-13T01:57:35.133Z,102512.41
2018-09-13T02:00:04.319Z,102506.91
2018-09-13T02:02:33.320Z,102506.44
2018-09-13T02:05:02.591Z,102505.77
2018-09-13T02:07:31.640Z,102504.33
2018-09-13T02:10:01.647Z,102507.87
2018-09-13T02:12:31.055Z,102507.87
2018-09-13T02:15:00.110Z,102505.59
2018-09-13T02:17:30.834Z,102501.37
2018-09-13T02:19:59.827Z,102500.25
2018-09-13T02:22:28.953Z,102504.55
2018-09-13T02:24:58.184Z,102497.14
2018-09-13T02:27:27.421Z,102498.34
2018-09-13T02:29:56.451Z,102493.33
2018-09-13T02:32:25.542Z,102493.79
2018-09-13T02:34:54.726Z,102496.73
2018-09-13T02:37:23.789Z,102494.47
2018-09-13T02:39:52.829Z,102497.09
2018-09-13T02:42:21.900Z,102491.20
2018-09-13T02:44:50.947Z,102495.47
2018-09-13T02:47:19.964Z,102489.88
2018-09-13T02:49:50.368Z,102485.28
2018-09-13T02:52:19.382Z,102482.86
2018-09-13T02:54:48.400Z,102484.08
2018-09-13T02:57:17.377Z,102483.78
2018-09-13T02:59:46.440Z,102480.84
2018-09-13T03:02:15.481Z,102478.13
2018-09-13T03:04:44.450Z,102476.63
2018-09-13T03:07:13.425Z,102480.77
2018-09-13T03:09:42.424Z,102477.24
2018-09-13T03:12:11.399Z,102466.81
2018-09-13T03:14:40.376Z,102467.36
2018-09-13T03:17:09.438Z,102470.65
2018-09-13T03:19:38.462Z,102463.11
2018-09-13T03:22:07.576Z,102464.94
2018-09-13T03:24:36.544Z,102457.55
2018-09-13T03:27:05.591Z,102460.13
2018-09-13T03:29:34.672Z,102461.94
2018-09-13T03:32:03.638Z,102460.78
2018-09-13T03:34:32.678Z,102456.56
2018-09-13T03:37:01.725Z,102459.75
2018-09-13T03:39:30.838Z,102449.26
2018-09-13T03:41:59.865Z,102453.39
2018-09-13T03:44:28.901Z,102454.31
2018-09-13T03:46:57.965Z,102450.61
2018-09-13T03:49:26.969Z,102459.60
2018-09-13T03:51:57.751Z,102462.32
2018-09-13T03:54:26.726Z,102459.37
2018-09-13T03:56:55.698Z,102452.63
2018-09-13T03:59:24.862Z,102464.95
2018-09-13T04:01:53.922Z,102461.09
2018-09-13T04:04:23.138Z,102463.08
2018-09-13T04:06:52.207Z,102460.27
2018-09-13T04:09:21.278Z,102451.12
2018-09-13T04:11:50.321Z,102454.67
2018-09-13T04:14:19.404Z,102444.95
2018-09-13T04:16:48.570Z,102447.64
2018-09-13T04:19:17.571Z,102456.04
2018-09-13T04:21:46.597Z,102447.29
2018-09-13T04:24:15.649Z,102442.23
2018-09-13T04:26:44.584Z,102441.11
2018-09-13T04:29:13.649Z,102442.70
2018-09-13T04:31:42.655Z,102442.61
2018-09-13T04:34:11.716Z,102434.55
2018-09-13T04:36:40.796Z,102432.95
2018-09-13T04:39:10.113Z,102438.16
2018-09-13T04:41:39.106Z,102439.52
2018-09-13T04:44:08.201Z,102440.59
2018-09-13T04:46:37.193Z,102441.95
2018-09-13T04:49:06.757Z,102442.70
2018-09-13T04:51:35.745Z,102438.91
2018-09-13T04:54:04.822Z,102426.77
2018-09-13T04:56:33.764Z,102431.13
2018-09-13T04:59:03.006Z,102433.83
2018-09-13T05:01:32.870Z,102429.22
2018-09-13T05:04:01.872Z,102431.70
2018-09-13T05:06:31.078Z,102425.91
2018-09-13T05:09:00.128Z,102431.02
2018-09-13T05:11:29.200Z,102435.30
2018-09-13T05:13:58.185Z,102431.17
2018-09-13T05:16:27.234Z,102426.50
2018-09-13T05:18:56.287Z,102436.62
2018-09-13T05:21:25.330Z,102434.66
2018-09-13T05:23:54.274Z,102429.73
2018-09-13T05:26:23.371Z,102433.89
2018-09-13T05:28:52.737Z,102432.30
2018-09-13T05:31:21.867Z,102433.42
2018-09-13T05:33:50.936Z,102441.34
2018-09-13T05:36:19.925Z,102439.75
2018-09-13T05:38:48.962Z,102435.06
2018-09-13T05:41:18.022Z,102433.58
2018-09-13T05:43:47.142Z,102438.12
2018-09-13T05:46:16.289Z,102439.41
2018-09-13T05:48:45.292Z,102438.28
2018-09-13T05:51:16.416Z,102444.92
2018-09-13T05:53:45.400Z,102448.25
2018-09-13T05:56:15.273Z,102447.70
2018-09-13T05:58:44.341Z,102447.17
2018-09-13T06:01:13.413Z,102442.94
2018-09-13T06:03:42.513Z,102451.55
2018-09-13T06:06:11.703Z,102449.24
2018-09-13T06:08:41.606Z,102447.44
2018-09-13T06:11:10.669Z,102445.89
2018-09-13T06:13:39.901Z,102444.02
2018-09-13T06:16:09.040Z,102450.41
2018-09-13T06:18:39.826Z,102447.46
2018-09-13T06:21:08.956Z,102454.02
2018-09-13T06:23:38.088Z,102454.34
2018-09-13T06:26:07.421Z,102458.19
2018-09-13T06:28:36.491Z,102457.70
2018-09-13T06:31:05.532Z,102458.98
2018-09-13T06:33:35.089Z,102454.55
2018-09-13T06:36:04.235Z,102452.87
2018-09-13T06:38:33.373Z,102457.67
2018-09-13T06:41:02.583Z,102465.19
2018-09-13T06:43:32.970Z,102462.11
2018-09-13T06:46:02.546Z,102462.05
2018-09-13T06:48:31.710Z,102461.20
2018-09-13T06:51:00.743Z,102464.61
2018-09-13T06:53:29.707Z,102461.38
2018-09-13T06:55:58.775Z,102457.99
2018-09-13T06:58:27.868Z,102463.20
2018-09-13T07:00:56.955Z,102462.66
2018-09-13T07:03:25.934Z,102462.72
2018-09-13T07:05:55.950Z,102469.16
2018-09-13T07:08:25.105Z,102468.34
2018-09-13T07:10:55.131Z,102470.02
2018-09-13T07:13:24.224Z,102463.23
2018-09-13T07:15:53.541Z,102458.91
2018-09-13T07:18:22.730Z,102465.84
2018-09-13T07:20:52.791Z,102464.81
2018-09-13T07:23:22.025Z,102460.70
2018-09-13T07:25:51.088Z,102461.28
2018-09-13T07:28:22.885Z,102462.22
2018-09-13T07:33:48.015Z,102460.04
2018-09-13T07:36:17.272Z,102460.18
2018-09-13T07:38:46.690Z,102466.83
2018-09-13T07:41:15.764Z,102464.43
2018-09-13T07:43:44.869Z,102463.67
2018-09-13T07:46:13.930Z,102457.20
2018-09-13T07:48:43.730Z,102464.68
2018-09-13T07:51:12.830Z,102471.38
2018-09-13T07:53:41.967Z,102467.30
2018-09-13T07:56:11.202Z,102472.38
2018-09-13T07:58:40.280Z,102477.28
2018-09-13T08:01:10.176Z,102482.02
2018-09-13T08:03:41.203Z,102475.19
2018-09-13T08:06:10.523Z,102475.70
2018-09-13T08:08:39.529Z,102478.65
2018-09-13T08:11:08.643Z,102475.02
2018-09-13T08:13:37.760Z,102474.43
2018-09-13T08:16:06.837Z,102480.89
2018-09-13T08:18:36.005Z,102492.08
2018-09-13T08:21:05.113Z,102490.14
2018-09-13T08:23:34.112Z,102487.64
2018-09-13T08:26:03.613Z,102489.61
2018-09-13T08:28:32.724Z,102490.00
2018-09-13T08:31:01.816Z,102485.80
2018-09-13T08:33:30.919Z,102486.83
2018-09-13T08:36:00.046Z,102480.73
2018-09-13T08:38:29.114Z,102486.72
2018-09-13T08:40:58.248Z,102488.58
2018-09-13T08:43:27.531Z,102488.99
2018-09-13T08:45:57.818Z,102485.81
2018-09-13T08:48:26.854Z,102494.03
2018-09-13T08:50:56.293Z,102490.22
2018-09-13T08:53:25.385Z,102494.33
2018-09-13T08:55:54.407Z,102492.95
2018-09-13T08:58:24.191Z,102493.80
2018-09-13T09:00:53.367Z,102503.91
2018-09-13T09:03:22.609Z,102492.42
2018-09-13T09:05:51.809Z,102502.02
2018-09-13T09:08:20.858Z,102500.42
2018-09-13T09:10:50.046Z,102493.63
2018-09-13T09:13:19.244Z,102497.50
2018-09-13T09:15:48.523Z,102497.55
2018-09-13T09:18:17.597Z,102501.47
2018-09-13T09:20:46.696Z,102505.61
2018-09-13T09:23:15.768Z,102510.33
2018-09-13T09:25:44.802Z,102508.20
2018-09-13T09:28:13.906Z,102511.28
2018-09-13T09:30:48.008Z,102513.26
2018-09-13T09:33:17.124Z,102512.79
2018-09-13T09:35:46.175Z,102514.25
2018-09-13T09:38:15.477Z,102512.70
2018-09-13T09:40:44.586Z,102516.34
2018-09-13T09:43:14.849Z,102508.73
2018-09-13T09:45:45.440Z,102510.12
2018-09-13T09:48:14.876Z,102512.05
2018-09-13T09:50:52.087Z,102510.98
2018-09-13T09:53:21.242Z,102509.88
2018-09-13T09:55:50.392Z,102507.97
2018-09-13T09:58:19.439Z,102499.73
2018-09-13T10:00:53.693Z,102505.24
2018-09-13T10:03:22.849Z,102504.19
2018-09-13T10:05:51.888Z,102502.86
2018-09-13T10:08:21.041Z,102502.56
2018-09-13T10:10:50.336Z,102509.45
2018-09-13T10:13:19.418Z,102504.78
2018-09-13T10:15:53.465Z,102502.33
2018-09-13T10:18:27.696Z,102488.11
2018-09-13T10:23:43.250Z,102493.06
2018-09-13T10:26:17.813Z,102495.02
2018-09-13T10:28:53.008Z,102504.63
2018-09-13T10:31:27.872Z,102504.92
2018-09-13T10:34:04.303Z,102497.55
2018-09-13T10:36:39.239Z,102491.25
2018-09-13T10:39:14.691Z,102492.63
2018-09-13T10:41:48.901Z,102493.17
2018-09-13T10:44:23.089Z,102483.27
2018-09-13T10:47:03.244Z,102497.56
2018-09-13T10:49:42.936Z,102496.42
2018-09-13T10:52:18.384Z,102497.23
2018-09-13T10:54:50.059Z,102490.91
2018-09-13T10:57:25.235Z,102501.59
2018-09-13T10:59:55.045Z,102496.11
2018-09-13T11:02:24.189Z,102497.46
2018-09-13T11:04:53.648Z,102503.77
2018-09-13T11:07:23.053Z,102518.88
2018-09-13T11:09:53.186Z,102501.55
2018-09-13T11:12:34.040Z,102508.43
2018-09-13T11:15:10.044Z,102510.91
2018-09-13T11:17:39.137Z,102509.83
2018-09-13T11:20:08.249Z,102507.61
2018-09-13T11:22:42.662Z,102502.12
2018-09-13T11:25:12.057Z,102506.00
2018-09-13T11:27:43.003Z,102505.72
2018-09-13T11:30:12.399Z,102501.33
2018-09-13T11:32:42.253Z,102506.84
2018-09-13T11:35:11.433Z,102498.30
2018-09-13T11:37:40.574Z,102511.77
2018-09-13T11:40:10.377Z,102515.13
2018-09-13T11:42:39.464Z,102505.82
2018-09-13T11:45:09.328Z,102489.87
2018-09-13T11:47:38.872Z,102498.95
2018-09-13T11:50:08.241Z,102488.81
2018-09-13T11:52:41.582Z,102483.59
2018-09-13T11:55:10.617Z,102490.20
2018-09-13T11:57:39.767Z,102486.06
2018-09-13T12:00:10.703Z,102488.55
2018-09-13T12:02:40.623Z,102484.97
2018-09-13T12:05:09.709Z,102487.20
2018-09-13T12:07:38.739Z,102480.05
2018-09-13T12:10:08.129Z,102481.13
2018-09-13T12:12:37.442Z,102479.50
2018-09-13T12:15:07.072Z,102474.00
2018-09-13T12:17:36.159Z,102479.23
2018-09-13T12:20:05.352Z,102486.63
2018-09-13T12:22:35.024Z,102481.14
2018-09-13T12:25:04.982Z,102475.94
2018-09-13T12:27:34.601Z,102473.73
2018-09-13T12:30:04.705Z,102466.87
2018-09-13T12:32:33.886Z,102470.99
2018-09-13T12:35:03.784Z,102473.72
2018-09-13T12:37:33.002Z,102463.27
2018-09-13T12:40:02.129Z,102465.20
2018-09-13T12:42:31.179Z,102453.13
2018-09-13T12:45:00.248Z,102452.55
2018-09-13T12:47:30.841Z,102458.87
2018-09-13T12:50:00.788Z,102454.22
2018-09-13T12:52:30.821Z,102456.69
2018-09-13T12:54:59.975Z,102452.57
2018-09-13T12:57:29.001Z,102461.89
2018-09-13T12:59:58.136Z,102462.71
2018-09-13T13:02:28.280Z,102459.43
2018-09-13T13:04:57.668Z,102458.58
2018-09-13T13:07:26.930Z,102451.45
2018-09-13T13:09:55.942Z,102450.61
2018-09-13T13:12:24.975Z,102453.91
2018-09-13T13:14:55.200Z,102451.98
2018-09-13T13:17:24.574Z,102446.22
2018-09-13T13:19:53.861Z,102441.01
2018-09-13T13:22:22.935Z,102435.79
2018-09-13T13:24:52.033Z,102440.17
2018-09-13T13:27:21.730Z,102440.98
2018-09-13T13:29:51.046Z,102436.86
2018-09-13T13:32:20.120Z,102441.29
2018-09-13T13:34:49.198Z,102436.87
2018-09-13T13:37:18.356Z,102433.29
2018-09-13T13:39:47.528Z,102419.84
2018-09-13T13:42:18.082Z,102435.77
2018-09-13T13:44:47.188Z,102432.77
2018-09-13T13:47:16.328Z,102431.94
2018-09-13T13:49:45.490Z,102423.13
2018-09-13T13:52:14.494Z,102418.19
2018-09-13T13:54:43.562Z,102425.05
2018-09-13T13:57:12.588Z,102418.97
2018-09-13T13:59:42.246Z,102421.19
2018-09-13T14:02:11.519Z,102411.82
2018-09-13T14:04:40.570Z,102420.36
2018-09-13T14:07:09.777Z,102412.10
2018-09-13T14:09:38.860Z,102408.83
2018-09-13T14:12:08.009Z,102414.60
2018-09-13T14:14:38.181Z,102407.73
2018-09-13T14:17:07.315Z,102403.58
2018-09-13T14:19:36.931Z,102407.98
2018-09-13T14:22:06.270Z,102411.56
2018-09-13T14:24:35.815Z,102411.28
2018-09-13T14:27:04.921Z,102402.78
2018-09-13T14:29:33.908Z,102409.89
2018-09-13T14:32:03.203Z,102404.42
2018-09-13T14:34:32.353Z,102404.42
2018-09-13T14:37:01.437Z,102411.00
2018-09-13T14:39:31.600Z,102399.72
2018-09-13T14:42:02.217Z,102397.27
2018-09-13T14:44:31.281Z,102404.12
2018-09-13T14:47:00.310Z,102393.09
2018-09-13T14:49:29.322Z,102390.36
2018-09-13T14:51:58.478Z,102384.27
2018-09-13T14:54:27.554Z,102384.81
2018-09-13T14:56:56.752Z,102382.87
2018-09-13T14:59:26.764Z,102380.66
2018-09-13T15:01:55.926Z,102376.50
2018-09-13T15:04:25.172Z,102379.25
2018-09-13T15:06:54.455Z,102369.88
2018-09-13T15:09:23.739Z,102374.01
2018-09-13T15:14:32.678Z,102370.14
2018-09-13T15:17:01.780Z,102373.98
2018-09-13T15:19:31.184Z,102372.59
2018-09-13T15:22:00.305Z,102374.23
2018-09-13T15:24:29.422Z,102373.11
2018-09-13T15:26:59.105Z,102371.45
2018-09-13T15:29:28.286Z,102378.08
2018-09-13T15:31:59.448Z,102367.64
2018-09-13T15:34:40.913Z,102370.94
2018-09-13T15:37:10.388Z,102373.17
2018-09-13T15:39:39.546Z,102369.34
2018-09-13T15:42:08.603Z,102367.12
2018-09-13T15:44:39.765Z,102366.07
2018-09-13T15:47:09.562Z,102361.72
2018-09-13T15:49:38.732Z,102366.16
2018-09-13T15:52:07.743Z,102365.63
2018-09-13T15:54:36.707Z,102361.21
2018-09-13T15:57:05.814Z,102361.48
2018-09-13T15:59:34.975Z,102356.81
2018-09-13T16:02:04.091Z,102357.10
2018-09-13T16:04:33.123Z,102360.14
2018-09-13T16:07:02.208Z,102365.09
2018-09-13T16:09:31.197Z,102362.91
2018-09-13T16:12:00.194Z,102355.48
2018-09-13T16:14:29.235Z,102367.56
2018-09-13T16:16:58.343Z,102360.17
2018-09-13T16:19:27.383Z,102355.77
2018-09-13T16:21:56.553Z,102354.12
2018-09-13T16:24:25.580Z,102348.08
2018-09-13T16:26:55.470Z,102346.42
2018-09-13T16:29:24.522Z,102345.33
2018-09-13T16:31:53.596Z,102333.77
2018-09-13T16:34:22.735Z,102336.54
2018-09-13T16:36:59.443Z,102337.91
2018-09-13T16:39:33.408Z,102344.23
2018-09-13T16:42:07.841Z,102333.81
2018-09-13T16:44:41.950Z,102341.51
2018-09-13T16:47:16.452Z,102335.46
2018-09-13T16:49:47.350Z,102340.70
2018-09-13T16:52:16.507Z,102337.96
2018-09-13T16:54:46.525Z,102333.28
2018-09-13T16:57:15.544Z,102330.01
2018-09-13T16:59:44.707Z,102329.17
2018-09-13T17:02:13.698Z,102329.17
2018-09-13T17:04:42.856Z,102326.42
2018-09-13T17:07:11.925Z,102325.03
2018-09-13T17:09:41.000Z,102320.89
2018-09-13T17:12:10.647Z,102323.91
2018-09-13T17:14:39.745Z,102321.98
2018-09-13T17:17:08.766Z,102320.06
2018-09-13T17:19:37.740Z,102318.69
2018-09-13T17:22:07.175Z,102317.86
2018-09-13T17:24:36.186Z,102318.14
2018-09-13T17:27:05.684Z,102323.91
2018-09-13T17:29:34.625Z,102321.99
2018-09-13T17:32:03.768Z,102322.84
2018-09-13T17:34:33.472Z,102330.81
2018-09-13T17:37:02.526Z,102324.23
2018-09-13T17:39:31.559Z,102328.63
2018-09-13T17:42:02.213Z,102321.25
2018-09-13T17:44:31.247Z,102321.80
2018-09-13T17:47:00.253Z,102326.75
2018-09-13T17:49:29.284Z,102320.66
2018-09-13T17:51:59.190Z,102313.52
2018-09-13T17:54:29.263Z,102309.96
2018-09-13T17:57:06.603Z,102314.90
2018-09-13T17:59:35.599Z,102312.97
2018-09-13T18:02:04.704Z,102308.86
2018-09-13T18:04:33.807Z,102311.59
2018-09-13T18:07:02.848Z,102309.69
2018-09-13T18:09:31.874Z,102308.31
2018-09-13T18:12:00.952Z,102311.06
2018-09-13T18:14:29.913Z,102312.16
2018-09-13T18:16:59.055Z,102308.03
2018-09-13T18:19:28.060Z,102305.83
2018-09-13T18:21:57.732Z,102306.11
2018-09-13T18:24:27.379Z,102309.12
2018-09-13T18:26:56.404Z,102297.58
2018-09-13T18:29:25.383Z,102293.47
2018-09-13T18:31:54.431Z,102297.85
2018-09-13T18:34:23.747Z,102301.45
2018-09-13T18:36:52.814Z,102301.97
2018-09-13T18:39:21.908Z,102303.36
2018-09-13T18:41:50.922Z,102297.31
2018-09-13T18:44:19.995Z,102292.66
2018-09-13T18:46:48.994Z,102297.31
2018-09-13T18:49:19.015Z,102296.48
2018-09-13T18:51:48.109Z,102289.89
2018-09-13T18:54:17.224Z,102298.69
2018-09-13T18:56:46.262Z,102299.50
2018-09-13T18:59:15.248Z,102302.52
2018-09-13T19:01:44.278Z,102304.98
2018-09-13T19:04:13.333Z,102302.23
2018-09-13T19:06:42.709Z,102305.53
2018-09-13T19:09:12.337Z,102308.23
2018-09-13T19:11:41.442Z,102307.68
2018-09-13T19:14:10.531Z,102305.23
2018-09-13T19:16:39.673Z,102315.91
2018-09-13T19:19:09.075Z,102310.16
2018-09-13T19:21:38.176Z,102314.27
2018-09-13T19:24:07.303Z,102321.39
2018-09-13T19:26:36.447Z,102318.11
2018-09-13T19:29:11.191Z,102317.84
2018-09-13T19:31:40.315Z,102321.41
2018-09-13T19:34:09.452Z,102319.50
2018-09-13T19:36:38.471Z,102316.20
2018-09-13T19:39:10.284Z,102316.48
2018-09-13T19:41:39.632Z,102326.59
2018-09-13T19:44:08.704Z,102327.42
2018-09-13T19:46:38.625Z,102329.03
2018-09-13T19:49:07.626Z,102332.05
2018-09-13T19:51:36.842Z,102326.55
2018-09-13T19:54:05.985Z,102331.77
2018-09-13T19:56:35.113Z,102334.75
2018-09-13T19:59:06.175Z,102340.23
2018-09-13T20:01:35.278Z,102335.88
2018-09-13T20:04:04.366Z,102329.29
2018-09-13T20:06:34.411Z,102321.06
2018-09-13T20:09:03.583Z,102327.11
2018-09-13T20:11:32.658Z,102324.11
2018-09-13T20:14:01.836Z,102337.54
2018-09-13T20:16:30.960Z,102330.97
2018-09-13T20:18:59.971Z,102334.56
2018-09-13T20:21:30.298Z,102333.45
2018-09-13T20:23:59.314Z,102334.56
2018-09-13T20:26:28.284Z,102336.47
2018-09-13T20:28:57.337Z,102332.05
2018-09-13T20:31:26.335Z,102334.28
2018-09-13T20:33:55.330Z,102324.39
2018-09-13T20:36:24.473Z,102324.67
2018-09-13T20:38:54.409Z,102320.00
2018-09-13T20:41:23.439Z,102314.77
2018-09-13T20:43:52.615Z,102323.25
2018-09-13T20:46:21.917Z,102320.78
2018-09-13T20:48:52.131Z,102317.21
2018-09-13T20:51:21.949Z,102318.32
2018-09-13T20:53:53.099Z,102321.63
2018-09-13T20:56:22.080Z,102315.03
2018-09-13T20:58:51.657Z,102328.74
2018-09-13T21:01:20.735Z,102334.78
2018-09-13T21:03:49.800Z,102324.11
2018-09-13T21:06:18.816Z,102327.66
2018-09-13T21:08:47.904Z,102328.47
2018-09-13T21:11:17.089Z,102331.20
2018-09-13T21:13:46.490Z,102327.66
2018-09-13T21:16:15.922Z,102315.59
2018-09-13T21:18:44.982Z,102322.72
2018-09-13T21:21:14.115Z,102315.33
2018-09-13T21:23:43.206Z,102316.70
2018-09-13T21:26:12.360Z,102304.87
2018-09-13T21:28:42.332Z,102310.11
2018-09-13T21:31:11.393Z,102315.86
2018-09-13T21:33:40.381Z,102305.73
2018-09-13T21:36:09.444Z,102309.01
2018-09-13T21:38:38.441Z,102309.28
2018-09-13T21:41:08.500Z,102304.61
2018-09-13T21:43:37.487Z,102299.11
2018-09-13T21:46:06.554Z,102296.64
2018-09-13T21:48:35.594Z,102298.00
2018-09-13T21:51:04.603Z,102297.20
2018-09-13T21:53:33.625Z,102294.14
2018-09-13T21:56:02.636Z,102296.89
2018-09-13T21:58:31.633Z,102297.17
2018-09-13T22:01:00.705Z,102291.41
2018-09-13T22:03:29.697Z,102296.36
2018-09-13T22:05:58.783Z,102291.95
2018-09-13T22:08:27.790Z,102294.43
2018-09-13T22:10:56.827Z,102295.23
2018-09-13T22:13:29.955Z,102293.58
2018-09-13T22:15:59.029Z,102299.06
2018-09-13T22:18:46.157Z,102290.30
2018-09-13T22:21:15.759Z,102292.77
2018-09-13T22:24:01.429Z,102284.52
2018-09-13T22:26:46.257Z,102291.60
2018-09-13T22:29:31.573Z,102293.79
2018-09-13T22:32:16.441Z,102295.41
2018-09-13T22:34:45.787Z,102296.23
2018-09-13T22:37:31.607Z,102288.79
2018-09-13T22:40:01.094Z,102294.55
2018-09-13T22:42:48.596Z,102295.89
2018-09-13T22:45:32.943Z,102295.06
2018-09-13T22:48:02.017Z,102292.30
2018-09-13T22:50:47.747Z,102290.36
2018-09-13T22:53:34.371Z,102284.08
2018-09-13T22:56:17.279Z,102286.30
2018-09-13T22:58:46.630Z,102291.24
2018-09-13T23:01:36.394Z,102282.47
2018-09-13T23:04:23.889Z,102284.97
2018-09-13T23:07:11.818Z,102286.65
2018-09-13T23:09:56.285Z,102284.73
2018-09-13T23:12:25.408Z,102278.44
2018-09-13T23:14:54.433Z,102281.47
2018-09-13T23:17:23.514Z,102276.81
2018-09-13T23:19:52.548Z,102277.11
2018-09-13T23:22:21.623Z,102276.58
2018-09-13T23:24:50.684Z,102276.59
2018-09-13T23:27:19.676Z,102278.49
2018-09-13T23:29:48.689Z,102267.83
2018-09-13T23:32:17.787Z,102266.16
2018-09-13T23:34:46.882Z,102269.73
2018-09-13T23:37:15.876Z,102269.17
2018-09-13T23:39:45.203Z,102267.45
2018-09-13T23:42:13.935Z,102257.56
2018-09-13T23:44:42.956Z,102268.49
2018-09-13T23:47:12.916Z,102257.75
2018-09-13T23:49:42.143Z,102264.88
2018-09-13T23:52:11.240Z,102263.75
2018-09-13T23:54:40.247Z,102264.30
2018-09-13T23:57:09.238Z,102252.75
2018-09-13T23:59:38.333Z,102260.95
